Crown Princess — ZCDM6 — position and weather

sailwx.info

Track history (hours):
 
Tides and Currents Weather Stations Pressure Air Temp Water Temp Dewpoint Dewpoint Depression Visibility Wind Speed Wind Dir Waves Ship Positions

Crown Princess

Last reported at 2014-Sep-19 15:33 UTC. Time now 2014-Sep-19 15:47 UTC.
Position N 34°19' W 120°01'.

Type: Ship. MMSI: 310500000.

Date/timePositionNaut miles runAvg speedWind from/ knotsBaromVisibWave heightAir tempDewpointWater temp
2014-Sep-19 15:33N 34°19' W 120°01'10916.8
2014-Sep-19 09:05N 35°23' W 121°48'1019.4
2014-Sep-19 08:34N 35°31' W 121°56'1919.4
2014-Sep-19 07:33N 35°47' W 122°10'2019.9
2014-Sep-19 06:33N 36°02' W 122°26'2019.9
2014-Sep-19 05:34N 36°18' W 122°41'1918.8
2014-Sep-19 04:32N 36°35' W 122°51'2318.7
2014-Sep-19 03:18N 36°58' W 122°54'1618.3
2014-Sep-19 02:26N 37°13' W 122°47'1618.1
2014-Sep-19 01:33N 37°29' W 122°43'1716.8
2014-Sep-19 00:33N 37°45' W 122°40'1312.8
2014-Sep-18 23:33N 37°49' W 122°24'0 0.4
2014-Sep-18 22:33N 37°48' W 122°24'0 0.0
2014-Sep-18 21:33N 37°48' W 122°24'0 0.0
2014-Sep-18 20:33N 37°48' W 122°24'0 0.0
2014-Sep-18 19:33N 37°48' W 122°24'0 0.0
2014-Sep-18 18:33N 37°48' W 122°24'0 0.0
2014-Sep-18 17:33N 37°48' W 122°24'0 0.0
2014-Sep-18 16:33N 37°48' W 122°24'0 0.0
2014-Sep-18 15:33N 37°48' W 122°24'0 0.0
2014-Sep-18 14:33N 37°48' W 122°24'1 0.5
2014-Sep-18 13:33N 37°49' W 122°24'1111.4
2014-Sep-18 12:33N 37°46' W 122°38'1313.5
2014-Sep-18 11:33N 37°50' W 122°54'1615.9
2014-Sep-18 10:33N 37°58' W 123°11'1515.3
2014-Sep-18 09:33N 38°08' W 123°25'1716.8
2014-Sep-18 08:33N 38°17' W 123°44'1817.5
2014-Sep-18 07:33N 38°30' W 123°59'45116.1
2014-Sep-17 03:31N 46°00' W 124°14'1414.9
2014-Sep-17 02:33N 46°14' W 124°07'1110.9
2014-Sep-17 01:34N 46°12' W 123°52'0 0.3
2014-Sep-17 00:33N 46°11' W 123°51'0 0.0
2014-Sep-16 23:33N 46°11' W 123°51'0 0.0
2014-Sep-16 22:32N 46°11' W 123°51'0 0.0
2014-Sep-16 21:29N 46°11' W 123°51'0 0.0
2014-Sep-16 20:31N 46°11' W 123°51'0 0.0
2014-Sep-16 19:31N 46°11' W 123°51'0 0.0
2014-Sep-16 18:34N 46°11' W 123°51'0 0.0
2014-Sep-16 17:30N 46°11' W 123°51'0 0.0
2014-Sep-16 16:33N 46°11' W 123°51'9 9.3
2014-Sep-16 15:34N 46°15' W 124°04'1312.7
2014-Sep-16 14:34N 46°12' W 124°21'11818.6
2014-Sep-16 08:14N 48°02' W 125°24'1319.6
2014-Sep-16 07:33N 48°14' W 125°15'1919.2
2014-Sep-16 06:33N 48°30' W 125°01'1919.5
2014-Sep-16 05:34N 48°27' W 124°32'2020.2
2014-Sep-16 04:33N 48°19' W 124°04'2020.2
2014-Sep-16 03:33N 48°15' W 123°35'1514.6
2014-Sep-16 02:33N 48°11' W 123°14'1818.1
2014-Sep-16 01:33N 48°11' W 122°47'1818.1
2014-Sep-16 00:33N 47°56' W 122°31'1817.6
2014-Sep-15 23:33N 47°39' W 122°27'4 4.4
2014-Sep-15 22:33N 47°37' W 122°21'0 0.0
2014-Sep-15 16:22N 47°37' W 122°21'0 0.0
2014-Sep-15 15:33N 47°37' W 122°21'0 0.0
2014-Sep-15 14:33N 47°37' W 122°21'0 0.0
2014-Sep-15 13:33N 47°37' W 122°21'3 2.5
2014-Sep-15 12:33N 47°37' W 122°25'10 9.8
2014-Sep-15 11:34N 47°47' W 122°27'1212.2
2014-Sep-15 10:33N 47°58' W 122°35'1210.7
2014-Sep-15 09:25N 48°09' W 122°43'1011.0
2014-Sep-15 08:33N 48°12' W 122°57'1211.9
2014-Sep-15 07:30N 48°11' W 123°15'9 9.6
2014-Sep-15 06:33N 48°12' W 123°29'10 9.7
2014-Sep-15 05:34N 48°21' W 123°25'4 0.3
2014-Sep-14 14:33N 48°25' W 123°24'6 6.4
2014-Sep-14 13:33N 48°24' W 123°14'8 8.2
2014-Sep-14 12:33N 48°32' W 123°13'10 9.6
2014-Sep-14 11:33N 48°42' W 123°15'12 6.2
2014-Sep-14 09:33N 48°53' W 123°08'9 9.2
2014-Sep-14 08:33N 48°60' W 123°18'9 8.8
2014-Sep-14 07:33N 49°06' W 123°27'8 8.2
2014-Sep-14 06:33N 49°13' W 123°34'9 8.5
2014-Sep-14 05:33N 49°17' W 123°46'8 7.8
2014-Sep-14 04:33N 49°21' W 123°56'6 6.3
2014-Sep-14 03:33N 49°21' W 123°46'8 7.6
2014-Sep-14 02:33N 49°18' W 123°35'7 7.5
2014-Sep-14 01:33N 49°17' W 123°24'11 2.8
2014-Sep-13 21:32N 49°17' W 123°06'0 0.0
2014-Sep-13 20:31N 49°17' W 123°06'0 0.0
2014-Sep-13 19:31N 49°17' W 123°06'0 0.0
2014-Sep-13 18:31N 49°17' W 123°06'0 0.0
2014-Sep-13 17:33N 49°17' W 123°06'0 0.0
2014-Sep-13 16:30N 49°17' W 123°06'0 0.0
2014-Sep-13 15:32N 49°17' W 123°06'0 0.0
2014-Sep-13 14:32N 49°17' W 123°06'0 0.3
2014-Sep-13 13:33N 49°18' W 123°06'9 8.6
2014-Sep-13 12:33N 49°18' W 123°19'1111.0
2014-Sep-13 11:34N 49°18' W 123°36'1110.8
2014-Sep-13 10:33N 49°20' W 123°53'1010.4
2014-Sep-13 09:34N 49°23' W 124°08'1010.1
2014-Sep-13 08:33N 49°27' W 124°22'10 9.9
2014-Sep-13 07:34N 49°33' W 124°34'1010.1
2014-Sep-13 06:33N 49°41' W 124°44'10 9.8
2014-Sep-13 05:34N 49°48' W 124°54'10 9.7
2014-Sep-13 04:32N 49°55' W 125°05'7214.2
2014-Sep-12 23:29N 50°32' W 126°41'1716.2
2014-Sep-12 22:25N 50°43' W 127°02'1517.6
2014-Sep-12 21:33N 50°49' W 127°24'1717.4
2014-Sep-12 20:33N 50°59' W 127°47'1616.1
2014-Sep-12 19:33N 51°08' W 128°08'1916.3
2014-Sep-12 18:22N 51°24' W 128°25'  
Track history (hours):
 
Tides and Currents Weather Stations Pressure Air Temp Water Temp Dewpoint Dewpoint Depression Visibility Wind Speed Wind Dir Waves Ship Positions

Crown Princess

Last reported at 2014-Sep-19 15:33 UTC. Time now 2014-Sep-19 15:47 UTC.
Position N 34°19' W 120°01'.

Type: Ship. MMSI: 310500000.

Date/timePositionNaut miles runAvg speedWind from/ knotsBaromVisibWave heightAir tempDewpointWater temp
2014-Sep-19 15:33N 34°19' W 120°01'10916.8
2014-Sep-19 09:05N 35°23' W 121°48'1019.4
2014-Sep-19 08:34N 35°31' W 121°56'1919.4
2014-Sep-19 07:33N 35°47' W 122°10'2019.9
2014-Sep-19 06:33N 36°02' W 122°26'2019.9
2014-Sep-19 05:34N 36°18' W 122°41'1918.8
2014-Sep-19 04:32N 36°35' W 122°51'2318.7
2014-Sep-19 03:18N 36°58' W 122°54'1618.3
2014-Sep-19 02:26N 37°13' W 122°47'1618.1
2014-Sep-19 01:33N 37°29' W 122°43'1716.8
2014-Sep-19 00:33N 37°45' W 122°40'1312.8
2014-Sep-18 23:33N 37°49' W 122°24'0 0.4
2014-Sep-18 22:33N 37°48' W 122°24'0 0.0
2014-Sep-18 21:33N 37°48' W 122°24'0 0.0
2014-Sep-18 20:33N 37°48' W 122°24'0 0.0
2014-Sep-18 19:33N 37°48' W 122°24'0 0.0
2014-Sep-18 18:33N 37°48' W 122°24'0 0.0
2014-Sep-18 17:33N 37°48' W 122°24'0 0.0
2014-Sep-18 16:33N 37°48' W 122°24'0 0.0
2014-Sep-18 15:33N 37°48' W 122°24'0 0.0
2014-Sep-18 14:33N 37°48' W 122°24'1 0.5
2014-Sep-18 13:33N 37°49' W 122°24'1111.4
2014-Sep-18 12:33N 37°46' W 122°38'1313.5
2014-Sep-18 11:33N 37°50' W 122°54'1615.9
2014-Sep-18 10:33N 37°58' W 123°11'1515.3
2014-Sep-18 09:33N 38°08' W 123°25'1716.8
2014-Sep-18 08:33N 38°17' W 123°44'1817.5
2014-Sep-18 07:33N 38°30' W 123°59'45116.1
2014-Sep-17 03:31N 46°00' W 124°14'1414.9
2014-Sep-17 02:33N 46°14' W 124°07'1110.9
2014-Sep-17 01:34N 46°12' W 123°52'0 0.3
2014-Sep-17 00:33N 46°11' W 123°51'0 0.0
2014-Sep-16 23:33N 46°11' W 123°51'0 0.0
2014-Sep-16 22:32N 46°11' W 123°51'0 0.0
2014-Sep-16 21:29N 46°11' W 123°51'0 0.0
2014-Sep-16 20:31N 46°11' W 123°51'0 0.0
2014-Sep-16 19:31N 46°11' W 123°51'0 0.0
2014-Sep-16 18:34N 46°11' W 123°51'0 0.0
2014-Sep-16 17:30N 46°11' W 123°51'0 0.0
2014-Sep-16 16:33N 46°11' W 123°51'9 9.3
2014-Sep-16 15:34N 46°15' W 124°04'1312.7
2014-Sep-16 14:34N 46°12' W 124°21'11818.6
2014-Sep-16 08:14N 48°02' W 125°24'1319.6
2014-Sep-16 07:33N 48°14' W 125°15'1919.2
2014-Sep-16 06:33N 48°30' W 125°01'1919.5
2014-Sep-16 05:34N 48°27' W 124°32'2020.2
2014-Sep-16 04:33N 48°19' W 124°04'2020.2
2014-Sep-16 03:33N 48°15' W 123°35'1514.6
2014-Sep-16 02:33N 48°11' W 123°14'1818.1
2014-Sep-16 01:33N 48°11' W 122°47'1818.1
2014-Sep-16 00:33N 47°56' W 122°31'1817.6
2014-Sep-15 23:33N 47°39' W 122°27'4 4.4
2014-Sep-15 22:33N 47°37' W 122°21'0 0.0
2014-Sep-15 16:22N 47°37' W 122°21'0 0.0
2014-Sep-15 15:33N 47°37' W 122°21'0 0.0
2014-Sep-15 14:33N 47°37' W 122°21'0 0.0
2014-Sep-15 13:33N 47°37' W 122°21'3 2.5
2014-Sep-15 12:33N 47°37' W 122°25'10 9.8
2014-Sep-15 11:34N 47°47' W 122°27'1212.2
2014-Sep-15 10:33N 47°58' W 122°35'1210.7
2014-Sep-15 09:25N 48°09' W 122°43'1011.0
2014-Sep-15 08:33N 48°12' W 122°57'1211.9
2014-Sep-15 07:30N 48°11' W 123°15'9 9.6
2014-Sep-15 06:33N 48°12' W 123°29'10 9.7
2014-Sep-15 05:34N 48°21' W 123°25'4 0.3
2014-Sep-14 14:33N 48°25' W 123°24'6 6.4
2014-Sep-14 13:33N 48°24' W 123°14'8 8.2
2014-Sep-14 12:33N 48°32' W 123°13'10 9.6
2014-Sep-14 11:33N 48°42' W 123°15'12 6.2
2014-Sep-14 09:33N 48°53' W 123°08'9 9.2
2014-Sep-14 08:33N 48°60' W 123°18'9 8.8
2014-Sep-14 07:33N 49°06' W 123°27'8 8.2
2014-Sep-14 06:33N 49°13' W 123°34'9 8.5
2014-Sep-14 05:33N 49°17' W 123°46'8 7.8
2014-Sep-14 04:33N 49°21' W 123°56'6 6.3
2014-Sep-14 03:33N 49°21' W 123°46'8 7.6
2014-Sep-14 02:33N 49°18' W 123°35'7 7.5
2014-Sep-14 01:33N 49°17' W 123°24'11 2.8
2014-Sep-13 21:32N 49°17' W 123°06'0 0.0
2014-Sep-13 20:31N 49°17' W 123°06'0 0.0
2014-Sep-13 19:31N 49°17' W 123°06'0 0.0
2014-Sep-13 18:31N 49°17' W 123°06'0 0.0
2014-Sep-13 17:33N 49°17' W 123°06'0 0.0
2014-Sep-13 16:30N 49°17' W 123°06'0 0.0
2014-Sep-13 15:32N 49°17' W 123°06'0 0.0
2014-Sep-13 14:32N 49°17' W 123°06'0 0.3
2014-Sep-13 13:33N 49°18' W 123°06'9 8.6
2014-Sep-13 12:33N 49°18' W 123°19'1111.0
2014-Sep-13 11:34N 49°18' W 123°36'1110.8
2014-Sep-13 10:33N 49°20' W 123°53'1010.4
2014-Sep-13 09:34N 49°23' W 124°08'1010.1
2014-Sep-13 08:33N 49°27' W 124°22'10 9.9
2014-Sep-13 07:34N 49°33' W 124°34'1010.1
2014-Sep-13 06:33N 49°41' W 124°44'10 9.8
2014-Sep-13 05:34N 49°48' W 124°54'10 9.7
2014-Sep-13 04:32N 49°55' W 125°05'7214.2
2014-Sep-12 23:29N 50°32' W 126°41'1716.2
2014-Sep-12 22:25N 50°43' W 127°02'1517.6
2014-Sep-12 21:33N 50°49' W 127°24'1717.4
2014-Sep-12 20:33N 50°59' W 127°47'1616.1
2014-Sep-12 19:33N 51°08' W 128°08'1916.3
2014-Sep-12 18:22N 51°24' W 128°25'  

Dump ship's entire track history